sensor_id;sensor_type;location;lat;lon;timestamp;temperature;humidity
11284;DHT22;5698;47.332;11.180;2024-01-30T00:01:53;2.70;90.00
11284;DHT22;5698;47.332;11.180;2024-01-30T00:04:20;2.70;90.20
11284;DHT22;5698;47.332;11.180;2024-01-30T00:06:50;2.80;90.60
11284;DHT22;5698;47.332;11.180;2024-01-30T00:09:18;2.70;90.70
11284;DHT22;5698;47.332;11.180;2024-01-30T00:11:45;2.70;91.00
11284;DHT22;5698;47.332;11.180;2024-01-30T00:14:12;2.70;91.10
11284;DHT22;5698;47.332;11.180;2024-01-30T00:16:39;2.70;90.90
11284;DHT22;5698;47.332;11.180;2024-01-30T00:19:06;2.70;90.70
11284;DHT22;5698;47.332;11.180;2024-01-30T00:21:34;2.70;90.60
11284;DHT22;5698;47.332;11.180;2024-01-30T00:24:02;2.70;90.50
11284;DHT22;5698;47.332;11.180;2024-01-30T00:26:29;2.70;90.80
11284;DHT22;5698;47.332;11.180;2024-01-30T00:28:56;2.70;90.80
11284;DHT22;5698;47.332;11.180;2024-01-30T00:31:24;2.70;91.20
11284;DHT22;5698;47.332;11.180;2024-01-30T00:33:51;2.70;91.20
11284;DHT22;5698;47.332;11.180;2024-01-30T00:36:18;2.70;91.30
11284;DHT22;5698;47.332;11.180;2024-01-30T00:38:45;2.60;91.30
11284;DHT22;5698;47.332;11.180;2024-01-30T00:41:14;2.60;90.90
11284;DHT22;5698;47.332;11.180;2024-01-30T00:43:41;2.60;90.90
11284;DHT22;5698;47.332;11.180;2024-01-30T00:46:08;2.60;90.80
11284;DHT22;5698;47.332;11.180;2024-01-30T00:48:35;2.60;90.90
11284;DHT22;5698;47.332;11.180;2024-01-30T00:51:02;2.60;91.00
11284;DHT22;5698;47.332;11.180;2024-01-30T00:53:29;2.60;91.00
11284;DHT22;5698;47.332;11.180;2024-01-30T00:55:56;2.60;91.10
11284;DHT22;5698;47.332;11.180;2024-01-30T00:58:24;2.50;90.80
11284;DHT22;5698;47.332;11.180;2024-01-30T01:00:51;2.50;90.80
11284;DHT22;5698;47.332;11.180;2024-01-30T01:03:18;2.50;90.80
11284;DHT22;5698;47.332;11.180;2024-01-30T01:05:45;2.50;90.80
11284;DHT22;5698;47.332;11.180;2024-01-30T01:08:12;2.50;91.00
11284;DHT22;5698;47.332;11.180;2024-01-30T01:10:40;2.50;91.20
11284;DHT22;5698;47.332;11.180;2024-01-30T01:13:07;2.50;91.00
11284;DHT22;5698;47.332;11.180;2024-01-30T01:15:36;2.50;91.20
11284;DHT22;5698;47.332;11.180;2024-01-30T01:18:03;2.50;91.20
11284;DHT22;5698;47.332;11.180;2024-01-30T01:20:30;2.50;91.50
11284;DHT22;5698;47.332;11.180;2024-01-30T01:22:57;2.50;91.60
11284;DHT22;5698;47.332;11.180;2024-01-30T01:25:24;2.40;91.30
11284;DHT22;5698;47.332;11.180;2024-01-30T01:27:51;2.40;90.90
11284;DHT22;5698;47.332;11.180;2024-01-30T01:30:19;2.40;91.10
11284;DHT22;5698;47.332;11.180;2024-01-30T01:32:49;2.50;90.60
11284;DHT22;5698;47.332;11.180;2024-01-30T01:35:21;2.50;91.00
11284;DHT22;5698;47.332;11.180;2024-01-30T01:37:48;2.40;91.00
11284;DHT22;5698;47.332;11.180;2024-01-30T01:40:21;2.40;91.40
11284;DHT22;5698;47.332;11.180;2024-01-30T01:42:49;2.40;91.60
11284;DHT22;5698;47.332;11.180;2024-01-30T01:45:16;2.40;91.30
11284;DHT22;5698;47.332;11.180;2024-01-30T01:47:44;2.40;91.20
11284;DHT22;5698;47.332;11.180;2024-01-30T01:50:14;2.40;91.70
11284;DHT22;5698;47.332;11.180;2024-01-30T01:52:45;2.40;91.70
11284;DHT22;5698;47.332;11.180;2024-01-30T01:55:14;2.40;91.30
11284;DHT22;5698;47.332;11.180;2024-01-30T01:57:41;2.40;91.50
11284;DHT22;5698;47.332;11.180;2024-01-30T02:00:09;2.30;91.00
11284;DHT22;5698;47.332;11.180;2024-01-30T02:02:37;2.40;90.90
11284;DHT22;5698;47.332;11.180;2024-01-30T02:05:06;2.40;90.90
11284;DHT22;5698;47.332;11.180;2024-01-30T02:07:34;2.40;90.90
11284;DHT22;5698;47.332;11.180;2024-01-30T02:10:01;2.40;91.10
11284;DHT22;5698;47.332;11.180;2024-01-30T02:12:29;2.40;90.70
11284;DHT22;5698;47.332;11.180;2024-01-30T02:14:56;2.40;91.10
11284;DHT22;5698;47.332;11.180;2024-01-30T02:17:23;2.40;91.00
11284;DHT22;5698;47.332;11.180;2024-01-30T02:19:51;2.40;90.80
11284;DHT22;5698;47.332;11.180;2024-01-30T02:22:20;2.30;91.10
11284;DHT22;5698;47.332;11.180;2024-01-30T02:24:48;2.30;91.40
11284;DHT22;5698;47.332;11.180;2024-01-30T02:27:15;2.30;91.40
11284;DHT22;5698;47.332;11.180;2024-01-30T02:29:42;2.30;91.20
11284;DHT22;5698;47.332;11.180;2024-01-30T02:32:09;2.30;91.30
11284;DHT22;5698;47.332;11.180;2024-01-30T02:34:36;2.30;91.30
11284;DHT22;5698;47.332;11.180;2024-01-30T02:37:03;2.30;91.50
11284;DHT22;5698;47.332;11.180;2024-01-30T02:39:32;2.30;91.40
11284;DHT22;5698;47.332;11.180;2024-01-30T02:41:59;2.30;90.60
11284;DHT22;5698;47.332;11.180;2024-01-30T02:44:26;2.30;90.80
11284;DHT22;5698;47.332;11.180;2024-01-30T02:46:52;2.30;90.90
11284;DHT22;5698;47.332;11.180;2024-01-30T02:49:20;2.20;91.10
11284;DHT22;5698;47.332;11.180;2024-01-30T02:51:48;2.20;91.10
11284;DHT22;5698;47.332;11.180;2024-01-30T02:54:15;2.20;90.70
11284;DHT22;5698;47.332;11.180;2024-01-30T02:56:43;2.20;91.00
11284;DHT22;5698;47.332;11.180;2024-01-30T02:59:10;2.20;91.20
11284;DHT22;5698;47.332;11.180;2024-01-30T03:01:43;2.20;91.10
11284;DHT22;5698;47.332;11.180;2024-01-30T03:04:10;2.20;91.10
11284;DHT22;5698;47.332;11.180;2024-01-30T03:06:38;2.20;90.60
11284;DHT22;5698;47.332;11.180;2024-01-30T03:09:05;2.20;91.20
11284;DHT22;5698;47.332;11.180;2024-01-30T03:11:32;2.20;91.10
11284;DHT22;5698;47.332;11.180;2024-01-30T03:14:00;2.20;91.60
11284;DHT22;5698;47.332;11.180;2024-01-30T03:16:27;2.20;91.40
11284;DHT22;5698;47.332;11.180;2024-01-30T03:18:54;2.20;91.40
11284;DHT22;5698;47.332;11.180;2024-01-30T03:21:21;2.20;91.50
11284;DHT22;5698;47.332;11.180;2024-01-30T03:23:48;2.10;91.70
11284;DHT22;5698;47.332;11.180;2024-01-30T03:26:15;2.20;92.20
11284;DHT22;5698;47.332;11.180;2024-01-30T03:28:42;2.10;91.40
11284;DHT22;5698;47.332;11.180;2024-01-30T03:31:12;2.10;91.90
11284;DHT22;5698;47.332;11.180;2024-01-30T03:33:39;2.10;90.90
11284;DHT22;5698;47.332;11.180;2024-01-30T03:36:07;2.10;91.30
11284;DHT22;5698;47.332;11.180;2024-01-30T03:38:34;2.10;91.30
11284;DHT22;5698;47.332;11.180;2024-01-30T03:41:01;2.10;90.80
11284;DHT22;5698;47.332;11.180;2024-01-30T03:43:28;2.10;91.30
11284;DHT22;5698;47.332;11.180;2024-01-30T03:45:55;2.10;91.90
11284;DHT22;5698;47.332;11.180;2024-01-30T03:48:23;2.10;91.90
11284;DHT22;5698;47.332;11.180;2024-01-30T03:50:51;2.00;91.70
11284;DHT22;5698;47.332;11.180;2024-01-30T03:53:18;2.10;91.90
11284;DHT22;5698;47.332;11.180;2024-01-30T03:55:45;2.00;91.50
11284;DHT22;5698;47.332;11.180;2024-01-30T03:58:12;2.00;91.50
11284;DHT22;5698;47.332;11.180;2024-01-30T04:00:39;2.00;91.60
11284;DHT22;5698;47.332;11.180;2024-01-30T04:03:06;2.00;91.30
11284;DHT22;5698;47.332;11.180;2024-01-30T04:05:35;2.10;91.40
11284;DHT22;5698;47.332;11.180;2024-01-30T04:08:02;2.10;91.30
11284;DHT22;5698;47.332;11.180;2024-01-30T04:10:29;2.00;91.60
11284;DHT22;5698;47.332;11.180;2024-01-30T04:12:56;2.00;91.80
11284;DHT22;5698;47.332;11.180;2024-01-30T04:15:23;2.00;91.00
11284;DHT22;5698;47.332;11.180;2024-01-30T04:17:49;2.00;91.30
11284;DHT22;5698;47.332;11.180;2024-01-30T04:20:17;2.00;91.60
11284;DHT22;5698;47.332;11.180;2024-01-30T04:22:46;2.00;90.90
11284;DHT22;5698;47.332;11.180;2024-01-30T04:25:13;2.00;91.60
11284;DHT22;5698;47.332;11.180;2024-01-30T04:27:40;2.00;91.90
11284;DHT22;5698;47.332;11.180;2024-01-30T04:30:08;1.90;92.10
11284;DHT22;5698;47.332;11.180;2024-01-30T04:32:35;1.90;92.00
11284;DHT22;5698;47.332;11.180;2024-01-30T04:35:03;1.90;92.00
11284;DHT22;5698;47.332;11.180;2024-01-30T04:37:30;1.90;91.80
11284;DHT22;5698;47.332;11.180;2024-01-30T04:39:58;1.90;91.50
11284;DHT22;5698;47.332;11.180;2024-01-30T04:42:25;1.90;91.40
11284;DHT22;5698;47.332;11.180;2024-01-30T04:44:52;1.90;91.50
11284;DHT22;5698;47.332;11.180;2024-01-30T04:47:19;1.90;91.50
11284;DHT22;5698;47.332;11.180;2024-01-30T04:49:46;1.90;91.60
11284;DHT22;5698;47.332;11.180;2024-01-30T04:52:13;1.90;90.30
11284;DHT22;5698;47.332;11.180;2024-01-30T04:54:41;1.90;91.30
11284;DHT22;5698;47.332;11.180;2024-01-30T04:57:09;1.90;91.60
11284;DHT22;5698;47.332;11.180;2024-01-30T04:59:37;1.90;91.50
11284;DHT22;5698;47.332;11.180;2024-01-30T05:02:04;1.80;91.50
11284;DHT22;5698;47.332;11.180;2024-01-30T05:04:32;1.80;91.60
11284;DHT22;5698;47.332;11.180;2024-01-30T05:06:59;1.90;91.10
11284;DHT22;5698;47.332;11.180;2024-01-30T05:09:26;1.90;90.80
11284;DHT22;5698;47.332;11.180;2024-01-30T05:11:53;1.80;91.20
11284;DHT22;5698;47.332;11.180;2024-01-30T05:14:22;1.80;91.40
11284;DHT22;5698;47.332;11.180;2024-01-30T05:16:49;1.80;91.50
11284;DHT22;5698;47.332;11.180;2024-01-30T05:19:16;1.80;91.00
11284;DHT22;5698;47.332;11.180;2024-01-30T05:21:44;1.80;91.20
11284;DHT22;5698;47.332;11.180;2024-01-30T05:24:11;1.80;91.40
11284;DHT22;5698;47.332;11.180;2024-01-30T05:26:38;1.80;91.90
11284;DHT22;5698;47.332;11.180;2024-01-30T05:29:06;1.80;92.10
11284;DHT22;5698;47.332;11.180;2024-01-30T05:31:34;1.80;92.10
11284;DHT22;5698;47.332;11.180;2024-01-30T05:34:01;1.70;91.90
11284;DHT22;5698;47.332;11.180;2024-01-30T05:36:28;1.70;91.50
11284;DHT22;5698;47.332;11.180;2024-01-30T05:38:56;1.70;91.10
11284;DHT22;5698;47.332;11.180;2024-01-30T05:41:23;1.70;91.70
11284;DHT22;5698;47.332;11.180;2024-01-30T05:43:50;1.70;91.20
11284;DHT22;5698;47.332;11.180;2024-01-30T05:46:19;1.70;91.80
11284;DHT22;5698;47.332;11.180;2024-01-30T05:48:47;1.70;91.30
11284;DHT22;5698;47.332;11.180;2024-01-30T05:51:14;1.70;91.30
11284;DHT22;5698;47.332;11.180;2024-01-30T05:53:41;1.70;91.40
11284;DHT22;5698;47.332;11.180;2024-01-30T05:56:08;1.80;91.80
11284;DHT22;5698;47.332;11.180;2024-01-30T05:58:35;1.80;90.90
11284;DHT22;5698;47.332;11.180;2024-01-30T06:01:03;1.70;91.30
11284;DHT22;5698;47.332;11.180;2024-01-30T06:03:33;1.70;91.70
11284;DHT22;5698;47.332;11.180;2024-01-30T06:06:01;1.70;91.20
11284;DHT22;5698;47.332;11.180;2024-01-30T06:08:28;1.80;91.40
11284;DHT22;5698;47.332;11.180;2024-01-30T06:10:55;1.80;91.30
11284;DHT22;5698;47.332;11.180;2024-01-30T06:13:22;1.80;91.30
11284;DHT22;5698;47.332;11.180;2024-01-30T06:15:49;1.80;91.50
11284;DHT22;5698;47.332;11.180;2024-01-30T06:18:16;1.70;91.60
11284;DHT22;5698;47.332;11.180;2024-01-30T06:20:44;1.70;91.40
11284;DHT22;5698;47.332;11.180;2024-01-30T06:23:12;1.70;91.40
11284;DHT22;5698;47.332;11.180;2024-01-30T06:25:40;1.60;91.40
11284;DHT22;5698;47.332;11.180;2024-01-30T06:28:07;1.70;91.50
11284;DHT22;5698;47.332;11.180;2024-01-30T06:30:34;1.70;91.70
11284;DHT22;5698;47.332;11.180;2024-01-30T06:33:01;1.60;91.70
11284;DHT22;5698;47.332;11.180;2024-01-30T06:35:28;1.70;91.40
11284;DHT22;5698;47.332;11.180;2024-01-30T06:37:55;1.60;91.20
11284;DHT22;5698;47.332;11.180;2024-01-30T06:40:24;1.60;90.90
11284;DHT22;5698;47.332;11.180;2024-01-30T06:42:51;1.60;91.30
11284;DHT22;5698;47.332;11.180;2024-01-30T06:45:18;1.60;91.90
11284;DHT22;5698;47.332;11.180;2024-01-30T06:47:48;1.60;92.10
11284;DHT22;5698;47.332;11.180;2024-01-30T06:50:15;1.60;91.90
11284;DHT22;5698;47.332;11.180;2024-01-30T06:52:42;1.60;91.40
11284;DHT22;5698;47.332;11.180;2024-01-30T06:55:09;1.50;91.40
11284;DHT22;5698;47.332;11.180;2024-01-30T06:57:37;1.50;91.10
11284;DHT22;5698;47.332;11.180;2024-01-30T07:00:05;1.60;91.10
11284;DHT22;5698;47.332;11.180;2024-01-30T07:02:32;1.60;91.10
11284;DHT22;5698;47.332;11.180;2024-01-30T07:04:59;1.60;91.10
11284;DHT22;5698;47.332;11.180;2024-01-30T07:07:26;1.60;91.00
11284;DHT22;5698;47.332;11.180;2024-01-30T07:09:54;1.60;91.00
11284;DHT22;5698;47.332;11.180;2024-01-30T07:12:22;1.60;91.30
11284;DHT22;5698;47.332;11.180;2024-01-30T07:14:51;1.60;91.50
11284;DHT22;5698;47.332;11.180;2024-01-30T07:17:19;1.70;91.20
11284;DHT22;5698;47.332;11.180;2024-01-30T07:19:46;1.60;91.20
11284;DHT22;5698;47.332;11.180;2024-01-30T07:22:13;1.70;91.40
11284;DHT22;5698;47.332;11.180;2024-01-30T07:24:42;1.70;91.40
11284;DHT22;5698;47.332;11.180;2024-01-30T07:27:13;1.70;91.70
11284;DHT22;5698;47.332;11.180;2024-01-30T07:29:43;1.70;92.40
11284;DHT22;5698;47.332;11.180;2024-01-30T07:32:11;1.70;92.20
11284;DHT22;5698;47.332;11.180;2024-01-30T07:34:38;1.70;91.90
11284;DHT22;5698;47.332;11.180;2024-01-30T07:37:05;1.70;91.90
11284;DHT22;5698;47.332;11.180;2024-01-30T07:39:34;1.70;92.10
11284;DHT22;5698;47.332;11.180;2024-01-30T07:42:01;1.70;92.20
11284;DHT22;5698;47.332;11.180;2024-01-30T07:44:28;1.70;92.20
11284;DHT22;5698;47.332;11.180;2024-01-30T07:46:55;1.70;91.30
11284;DHT22;5698;47.332;11.180;2024-01-30T07:49:24;1.70;91.30
11284;DHT22;5698;47.332;11.180;2024-01-30T07:51:51;1.70;92.00
11284;DHT22;5698;47.332;11.180;2024-01-30T07:54:18;1.80;92.30
11284;DHT22;5698;47.332;11.180;2024-01-30T07:56:45;1.80;92.20
11284;DHT22;5698;47.332;11.180;2024-01-30T07:59:12;1.90;92.10
11284;DHT22;5698;47.332;11.180;2024-01-30T08:01:39;2.10;92.30
11284;DHT22;5698;47.332;11.180;2024-01-30T08:04:06;2.30;92.40
11284;DHT22;5698;47.332;11.180;2024-01-30T08:06:34;2.50;92.30
11284;DHT22;5698;47.332;11.180;2024-01-30T08:09:01;2.70;92.20
11284;DHT22;5698;47.332;11.180;2024-01-30T08:11:28;2.80;92.10
11284;DHT22;5698;47.332;11.180;2024-01-30T08:13:56;3.00;91.90
11284;DHT22;5698;47.332;11.180;2024-01-30T08:16:23;3.20;91.80
11284;DHT22;5698;47.332;11.180;2024-01-30T08:18:50;3.40;91.80
11284;DHT22;5698;47.332;11.180;2024-01-30T08:21:18;3.50;91.60
11284;DHT22;5698;47.332;11.180;2024-01-30T08:23:47;3.70;91.70
11284;DHT22;5698;47.332;11.180;2024-01-30T08:26:14;3.90;91.50
11284;DHT22;5698;47.332;11.180;2024-01-30T08:28:41;4.10;91.40
11284;DHT22;5698;47.332;11.180;2024-01-30T08:31:10;4.30;91.50
11284;DHT22;5698;47.332;11.180;2024-01-30T08:33:37;4.50;91.40
11284;DHT22;5698;47.332;11.180;2024-01-30T08:36:05;4.60;91.00
11284;DHT22;5698;47.332;11.180;2024-01-30T08:38:32;4.80;91.20
11284;DHT22;5698;47.332;11.180;2024-01-30T08:41:01;5.00;89.80
11284;DHT22;5698;47.332;11.180;2024-01-30T08:43:28;5.20;90.10
11284;DHT22;5698;47.332;11.180;2024-01-30T08:45:55;5.30;89.90
11284;DHT22;5698;47.332;11.180;2024-01-30T08:48:25;5.40;90.00
11284;DHT22;5698;47.332;11.180;2024-01-30T08:50:52;5.60;89.70
11284;DHT22;5698;47.332;11.180;2024-01-30T08:53:19;5.80;90.00
11284;DHT22;5698;47.332;11.180;2024-01-30T08:55:46;6.00;90.10
11284;DHT22;5698;47.332;11.180;2024-01-30T08:58:15;6.20;88.30
11284;DHT22;5698;47.332;11.180;2024-01-30T09:00:43;6.40;88.10
11284;DHT22;5698;47.332;11.180;2024-01-30T09:03:10;6.50;87.50
11284;DHT22;5698;47.332;11.180;2024-01-30T09:05:37;6.70;88.50
11284;DHT22;5698;47.332;11.180;2024-01-30T09:08:05;6.90;88.40
11284;DHT22;5698;47.332;11.180;2024-01-30T09:10:32;7.00;86.70
11284;DHT22;5698;47.332;11.180;2024-01-30T09:12:59;7.10;87.30
11284;DHT22;5698;47.332;11.180;2024-01-30T09:15:27;7.30;83.90
11284;DHT22;5698;47.332;11.180;2024-01-30T09:17:53;7.50;82.70
11284;DHT22;5698;47.332;11.180;2024-01-30T09:20:20;7.60;83.40
11284;DHT22;5698;47.332;11.180;2024-01-30T09:22:48;7.80;82.60
11284;DHT22;5698;47.332;11.180;2024-01-30T09:25:15;7.90;82.50
11284;DHT22;5698;47.332;11.180;2024-01-30T09:27:44;8.10;82.90
11284;DHT22;5698;47.332;11.180;2024-01-30T09:30:12;8.40;82.70
11284;DHT22;5698;47.332;11.180;2024-01-30T09:32:41;8.60;80.70
11284;DHT22;5698;47.332;11.180;2024-01-30T09:35:09;8.80;81.00
11284;DHT22;5698;47.332;11.180;2024-01-30T09:37:36;8.90;81.30
11284;DHT22;5698;47.332;11.180;2024-01-30T09:40:03;9.20;78.10
11284;DHT22;5698;47.332;11.180;2024-01-30T09:42:34;9.50;77.40
11284;DHT22;5698;47.332;11.180;2024-01-30T09:45:02;9.70;76.40
11284;DHT22;5698;47.332;11.180;2024-01-30T09:47:32;9.90;73.20
11284;DHT22;5698;47.332;11.180;2024-01-30T09:50:01;10.00;72.10
11284;DHT22;5698;47.332;11.180;2024-01-30T09:52:31;10.20;71.70
11284;DHT22;5698;47.332;11.180;2024-01-30T09:54:59;10.30;71.70
11284;DHT22;5698;47.332;11.180;2024-01-30T09:57:26;10.50;70.10
11284;DHT22;5698;47.332;11.180;2024-01-30T09:59:54;10.70;69.50
11284;DHT22;5698;47.332;11.180;2024-01-30T10:02:21;10.90;69.00
11284;DHT22;5698;47.332;11.180;2024-01-30T10:04:49;11.10;67.80
11284;DHT22;5698;47.332;11.180;2024-01-30T10:07:18;11.30;67.40
11284;DHT22;5698;47.332;11.180;2024-01-30T10:09:45;11.50;63.20
11284;DHT22;5698;47.332;11.180;2024-01-30T10:12:13;11.60;64.70
11284;DHT22;5698;47.332;11.180;2024-01-30T10:14:40;11.70;63.40
11284;DHT22;5698;47.332;11.180;2024-01-30T10:17:07;11.90;62.60
11284;DHT22;5698;47.332;11.180;2024-01-30T10:19:35;12.20;61.70
11284;DHT22;5698;47.332;11.180;2024-01-30T10:22:03;12.50;60.80
11284;DHT22;5698;47.332;11.180;2024-01-30T10:24:32;12.70;61.30
11284;DHT22;5698;47.332;11.180;2024-01-30T10:27:00;12.80;59.90
11284;DHT22;5698;47.332;11.180;2024-01-30T10:29:27;12.90;59.30
11284;DHT22;5698;47.332;11.180;2024-01-30T10:32:01;13.00;60.20
11284;DHT22;5698;47.332;11.180;2024-01-30T10:34:28;13.10;59.60
11284;DHT22;5698;47.332;11.180;2024-01-30T10:37:00;13.30;57.80
11284;DHT22;5698;47.332;11.180;2024-01-30T10:39:32;13.50;57.60
11284;DHT22;5698;47.332;11.180;2024-01-30T10:42:05;13.60;58.40
11284;DHT22;5698;47.332;11.180;2024-01-30T10:44:39;13.80;56.50
11284;DHT22;5698;47.332;11.180;2024-01-30T10:47:12;13.90;55.40
11284;DHT22;5698;47.332;11.180;2024-01-30T10:49:41;14.00;55.70
11284;DHT22;5698;47.332;11.180;2024-01-30T10:52:10;14.00;55.60
11284;DHT22;5698;47.332;11.180;2024-01-30T10:54:40;14.00;55.10
11284;DHT22;5698;47.332;11.180;2024-01-30T10:57:10;14.10;54.00
11284;DHT22;5698;47.332;11.180;2024-01-30T10:59:38;14.30;54.00
11284;DHT22;5698;47.332;11.180;2024-01-30T11:02:06;14.40;54.50
11284;DHT22;5698;47.332;11.180;2024-01-30T11:04:36;14.40;55.30
11284;DHT22;5698;47.332;11.180;2024-01-30T11:07:14;14.40;54.00
11284;DHT22;5698;47.332;11.180;2024-01-30T11:09:48;14.50;53.70
11284;DHT22;5698;47.332;11.180;2024-01-30T11:12:15;14.60;53.50
11284;DHT22;5698;47.332;11.180;2024-01-30T11:14:42;14.60;52.20
11284;DHT22;5698;47.332;11.180;2024-01-30T11:17:10;14.70;53.70
11284;DHT22;5698;47.332;11.180;2024-01-30T11:19:38;14.70;51.50
11284;DHT22;5698;47.332;11.180;2024-01-30T11:22:06;14.60;53.30
11284;DHT22;5698;47.332;11.180;2024-01-30T11:24:39;14.60;54.10
11284;DHT22;5698;47.332;11.180;2024-01-30T11:27:10;14.70;53.60
11284;DHT22;5698;47.332;11.180;2024-01-30T11:29:37;14.70;53.00
11284;DHT22;5698;47.332;11.180;2024-01-30T11:32:05;14.80;53.00
11284;DHT22;5698;47.332;11.180;2024-01-30T11:34:32;14.80;51.90
11284;DHT22;5698;47.332;11.180;2024-01-30T11:37:03;14.70;53.90
11284;DHT22;5698;47.332;11.180;2024-01-30T11:39:36;14.70;51.90
11284;DHT22;5698;47.332;11.180;2024-01-30T11:42:06;14.80;52.10
11284;DHT22;5698;47.332;11.180;2024-01-30T11:44:35;14.80;52.80
11284;DHT22;5698;47.332;11.180;2024-01-30T11:47:03;14.80;51.60
11284;DHT22;5698;47.332;11.180;2024-01-30T11:49:30;14.90;53.00
11284;DHT22;5698;47.332;11.180;2024-01-30T11:51:57;14.90;52.80
11284;DHT22;5698;47.332;11.180;2024-01-30T11:54:24;14.90;52.30
11284;DHT22;5698;47.332;11.180;2024-01-30T11:56:51;15.00;52.20
11284;DHT22;5698;47.332;11.180;2024-01-30T11:59:18;14.90;52.60
11284;DHT22;5698;47.332;11.180;2024-01-30T12:01:46;15.00;51.60
11284;DHT22;5698;47.332;11.180;2024-01-30T12:04:14;15.00;51.90
11284;DHT22;5698;47.332;11.180;2024-01-30T12:06:41;15.00;52.10
11284;DHT22;5698;47.332;11.180;2024-01-30T12:09:09;15.00;50.40
11284;DHT22;5698;47.332;11.180;2024-01-30T12:11:44;14.90;51.30
11284;DHT22;5698;47.332;11.180;2024-01-30T12:14:12;14.80;51.70
11284;DHT22;5698;47.332;11.180;2024-01-30T12:16:39;14.60;53.80
11284;DHT22;5698;47.332;11.180;2024-01-30T12:19:08;14.40;52.80
11284;DHT22;5698;47.332;11.180;2024-01-30T12:21:36;14.50;53.10
11284;DHT22;5698;47.332;11.180;2024-01-30T12:24:04;14.60;54.70
11284;DHT22;5698;47.332;11.180;2024-01-30T12:26:32;14.80;55.40
11284;DHT22;5698;47.332;11.180;2024-01-30T12:28:59;15.00;55.10
11284;DHT22;5698;47.332;11.180;2024-01-30T12:31:27;15.00;54.60
11284;DHT22;5698;47.332;11.180;2024-01-30T12:33:54;14.90;55.70
11284;DHT22;5698;47.332;11.180;2024-01-30T12:36:23;14.90;55.60
11284;DHT22;5698;47.332;11.180;2024-01-30T12:38:50;14.90;55.50
11284;DHT22;5698;47.332;11.180;2024-01-30T12:41:17;15.00;55.60
11284;DHT22;5698;47.332;11.180;2024-01-30T12:43:45;15.10;55.40
11284;DHT22;5698;47.332;11.180;2024-01-30T12:46:13;15.10;53.60
11284;DHT22;5698;47.332;11.180;2024-01-30T12:48:40;15.10;52.70
11284;DHT22;5698;47.332;11.180;2024-01-30T12:51:07;15.10;52.30
11284;DHT22;5698;47.332;11.180;2024-01-30T12:53:35;14.90;52.80
11284;DHT22;5698;47.332;11.180;2024-01-30T12:56:03;14.70;56.10
11284;DHT22;5698;47.332;11.180;2024-01-30T12:58:31;14.60;57.30
11284;DHT22;5698;47.332;11.180;2024-01-30T13:00:58;14.40;55.70
11284;DHT22;5698;47.332;11.180;2024-01-30T13:03:25;14.10;56.80
11284;DHT22;5698;47.332;11.180;2024-01-30T13:05:52;14.00;56.10
11284;DHT22;5698;47.332;11.180;2024-01-30T13:08:19;13.80;57.10
11284;DHT22;5698;47.332;11.180;2024-01-30T13:10:47;13.70;58.60
11284;DHT22;5698;47.332;11.180;2024-01-30T13:13:14;13.60;58.40
11284;DHT22;5698;47.332;11.180;2024-01-30T13:15:41;13.40;58.70
11284;DHT22;5698;47.332;11.180;2024-01-30T13:18:08;13.30;57.90
11284;DHT22;5698;47.332;11.180;2024-01-30T13:20:35;13.10;57.80
11284;DHT22;5698;47.332;11.180;2024-01-30T13:23:03;13.00;59.30
11284;DHT22;5698;47.332;11.180;2024-01-30T13:25:30;12.90;59.70
11284;DHT22;5698;47.332;11.180;2024-01-30T13:27:58;12.70;60.70
11284;DHT22;5698;47.332;11.180;2024-01-30T13:30:25;12.50;61.20
11284;DHT22;5698;47.332;11.180;2024-01-30T13:32:52;12.40;60.60
11284;DHT22;5698;47.332;11.180;2024-01-30T13:35:19;12.20;61.10
11284;DHT22;5698;47.332;11.180;2024-01-30T13:37:46;12.00;62.00
11284;DHT22;5698;47.332;11.180;2024-01-30T13:40:14;11.90;61.10
11284;DHT22;5698;47.332;11.180;2024-01-30T13:42:42;11.80;60.60
11284;DHT22;5698;47.332;11.180;2024-01-30T13:45:10;11.70;61.30
11284;DHT22;5698;47.332;11.180;2024-01-30T13:47:37;11.60;62.20
11284;DHT22;5698;47.332;11.180;2024-01-30T13:50:05;11.50;62.60
11284;DHT22;5698;47.332;11.180;2024-01-30T13:52:32;11.40;63.70
11284;DHT22;5698;47.332;11.180;2024-01-30T13:54:59;11.20;64.40
11284;DHT22;5698;47.332;11.180;2024-01-30T13:57:26;11.00;64.70
11284;DHT22;5698;47.332;11.180;2024-01-30T13:59:53;10.90;65.00
11284;DHT22;5698;47.332;11.180;2024-01-30T14:02:21;10.80;65.50
11284;DHT22;5698;47.332;11.180;2024-01-30T14:04:48;10.70;64.80
11284;DHT22;5698;47.332;11.180;2024-01-30T14:07:15;10.70;63.40
11284;DHT22;5698;47.332;11.180;2024-01-30T14:09:44;10.70;62.90
11284;DHT22;5698;47.332;11.180;2024-01-30T14:12:11;10.70;63.60
11284;DHT22;5698;47.332;11.180;2024-01-30T14:14:38;10.70;63.20
11284;DHT22;5698;47.332;11.180;2024-01-30T14:17:05;10.60;63.90
11284;DHT22;5698;47.332;11.180;2024-01-30T14:19:34;10.60;65.00
11284;DHT22;5698;47.332;11.180;2024-01-30T14:22:01;10.50;66.10
11284;DHT22;5698;47.332;11.180;2024-01-30T14:24:28;10.40;67.10
11284;DHT22;5698;47.332;11.180;2024-01-30T14:26:55;10.30;68.10
11284;DHT22;5698;47.332;11.180;2024-01-30T14:29:22;10.20;69.40
11284;DHT22;5698;47.332;11.180;2024-01-30T14:31:49;10.10;70.00
11284;DHT22;5698;47.332;11.180;2024-01-30T14:34:16;10.00;70.30
11284;DHT22;5698;47.332;11.180;2024-01-30T14:36:45;9.90;70.70
11284;DHT22;5698;47.332;11.180;2024-01-30T14:39:12;9.80;71.40
11284;DHT22;5698;47.332;11.180;2024-01-30T14:41:40;9.70;71.50
11284;DHT22;5698;47.332;11.180;2024-01-30T14:44:07;9.60;71.60
11284;DHT22;5698;47.332;11.180;2024-01-30T14:46:35;9.40;72.00
11284;DHT22;5698;47.332;11.180;2024-01-30T14:49:02;9.20;72.20
11284;DHT22;5698;47.332;11.180;2024-01-30T14:51:31;9.10;72.40
11284;DHT22;5698;47.332;11.180;2024-01-30T14:53:59;8.90;72.60
11284;DHT22;5698;47.332;11.180;2024-01-30T14:56:27;8.80;73.60
11284;DHT22;5698;47.332;11.180;2024-01-30T14:58:54;8.70;73.20
11284;DHT22;5698;47.332;11.180;2024-01-30T15:01:21;8.70;73.30
11284;DHT22;5698;47.332;11.180;2024-01-30T15:03:48;8.60;73.70
11284;DHT22;5698;47.332;11.180;2024-01-30T15:06:17;8.50;74.40
11284;DHT22;5698;47.332;11.180;2024-01-30T15:08:44;8.50;75.30
11284;DHT22;5698;47.332;11.180;2024-01-30T15:11:13;8.50;75.50
11284;DHT22;5698;47.332;11.180;2024-01-30T15:13:40;8.50;75.90
11284;DHT22;5698;47.332;11.180;2024-01-30T15:16:07;8.50;75.90
11284;DHT22;5698;47.332;11.180;2024-01-30T15:18:34;8.40;75.80
11284;DHT22;5698;47.332;11.180;2024-01-30T15:21:01;8.40;75.70
11284;DHT22;5698;47.332;11.180;2024-01-30T15:23:28;8.30;75.90
11284;DHT22;5698;47.332;11.180;2024-01-30T15:25:55;8.20;74.60
11284;DHT22;5698;47.332;11.180;2024-01-30T15:28:34;8.10;75.40
11284;DHT22;5698;47.332;11.180;2024-01-30T15:31:02;8.00;76.20
11284;DHT22;5698;47.332;11.180;2024-01-30T15:33:29;7.90;77.00
11284;DHT22;5698;47.332;11.180;2024-01-30T15:35:56;7.80;77.40
11284;DHT22;5698;47.332;11.180;2024-01-30T15:38:23;7.80;77.20
11284;DHT22;5698;47.332;11.180;2024-01-30T15:40:50;7.70;75.40
11284;DHT22;5698;47.332;11.180;2024-01-30T15:43:17;7.80;75.60
11284;DHT22;5698;47.332;11.180;2024-01-30T15:45:45;7.80;74.30